Time;durP1;ratioP1;P1;durP2;ratioP2;P2;SDS_P1;SDS_P2;PMS_P1;PMS_P2;Temp;Humidity;BMP_temperature;BMP_pressure;BME280_temperature;BME280_humidity;BME280_pressure;Samples;Min_cycle;Max_cycle;Signal;HPM_P1;HPM_P2
2021/07/22 00:01:36;;;;;;;15.18;7.32;;;;;;;17.84;68.45;101998.84;5023235;28;20040;-71
2021/07/22 00:04:01;;;;;;;13.95;7.65;;;;;;;17.86;68.27;101994.25;5020740;28;20091;-71
2021/07/22 00:06:27;;;;;;;9.70;6.10;;;;;;;17.88;68.05;101992.28;5018485;28;20063;-71
2021/07/22 00:08:52;;;;;;;14.60;7.53;;;;;;;17.92;67.68;101997.97;5027927;28;20033;-71
2021/07/22 00:11:18;;;;;;;21.08;7.53;;;;;;;17.92;67.64;101987.50;5038161;28;20041;-71
2021/07/22 00:13:43;;;;;;;11.88;6.90;;;;;;;17.94;68.12;101986.31;5029187;28;20037;-71
2021/07/22 00:16:17;;;;;;;12.88;7.95;;;;;;;17.95;68.15;101987.13;5026529;28;20071;-71
2021/07/22 00:18:42;;;;;;;14.43;7.18;;;;;;;17.95;68.50;101987.97;5039639;28;20109;-71
2021/07/22 00:21:08;;;;;;;14.18;7.55;;;;;;;17.96;68.48;101980.91;5032322;28;20401;-70
2021/07/22 00:23:34;;;;;;;13.07;7.03;;;;;;;17.94;69.17;101982.88;5021449;28;20041;-71
2021/07/22 00:26:03;;;;;;;12.05;7.07;;;;;;;17.93;69.63;101976.78;5028734;28;20045;-71
2021/07/22 00:28:29;;;;;;;14.73;7.72;;;;;;;17.92;69.70;101982.25;5027614;28;20099;-71
2021/07/22 00:30:55;;;;;;;12.63;7.25;;;;;;;17.92;69.64;101977.00;5025843;28;20033;-71
2021/07/22 00:33:20;;;;;;;12.35;7.22;;;;;;;17.92;69.90;101971.75;5024516;28;20048;-71
2021/07/22 00:35:46;;;;;;;12.13;7.20;;;;;;;17.92;69.70;101980.44;5020988;28;20106;-71
2021/07/22 00:38:11;;;;;;;14.32;7.20;;;;;;;17.90;70.04;101983.22;5024414;28;20049;-71
2021/07/22 00:40:46;;;;;;;15.50;7.18;;;;;;;17.87;70.18;101973.06;5018296;28;20029;-71
2021/07/22 00:43:12;;;;;;;15.20;8.05;;;;;;;17.80;70.95;101977.38;5021014;28;20040;-70
2021/07/22 00:45:37;;;;;;;13.55;7.00;;;;;;;17.80;71.14;101980.00;5017000;28;20049;-71
2021/07/22 00:48:04;;;;;;;14.38;7.25;;;;;;;17.80;71.01;101979.16;5027194;28;20502;-71
2021/07/22 00:50:31;;;;;;;12.45;6.80;;;;;;;17.80;70.87;101979.16;5023427;28;20030;-71
2021/07/22 00:53:00;;;;;;;16.92;7.70;;;;;;;17.81;70.71;101980.81;5023981;28;20038;-71
2021/07/22 00:55:28;;;;;;;14.30;7.03;;;;;;;17.79;70.29;101978.34;5025645;28;20034;-70
2021/07/22 00:57:54;;;;;;;12.70;7.28;;;;;;;17.75;70.67;101973.66;5020759;28;20095;-70
2021/07/22 01:00:20;;;;;;;15.63;7.63;;;;;;;17.73;70.69;101984.31;5028863;28;20079;-71
2021/07/22 01:02:46;;;;;;;16.75;8.25;;;;;;;17.70;70.55;101969.72;5030615;28;20444;-71
2021/07/22 01:05:12;;;;;;;15.25;6.90;;;;;;;17.71;70.65;101984.47;5023046;28;20044;-71
2021/07/22 01:07:38;;;;;;;11.23;7.35;;;;;;;17.71;70.27;101981.84;5026504;28;20422;-71
2021/07/22 01:10:08;;;;;;;11.95;7.10;;;;;;;17.70;70.30;101979.41;5033371;28;20463;-71
2021/07/22 01:12:36;;;;;;;11.35;7.05;;;;;;;17.69;70.43;101983.03;5025243;28;20426;-71
2021/07/22 01:15:02;;;;;;;13.00;7.60;;;;;;;17.66;70.69;101981.56;5016571;28;20030;-71
2021/07/22 01:17:41;;;;;;;12.13;7.03;;;;;;;17.64;70.64;101972.22;5022081;28;20041;-71
2021/07/22 01:20:19;;;;;;;10.90;6.93;;;;;;;17.60;70.25;101969.16;5024648;28;20028;-71
2021/07/22 01:22:47;;;;;;;11.55;7.10;;;;;;;17.58;70.30;101970.31;5022079;28;20034;-71
2021/07/22 01:25:14;;;;;;;11.63;6.72;;;;;;;17.56;70.27;101975.72;5025836;28;20033;-71
2021/07/22 01:27:42;;;;;;;16.05;8.30;;;;;;;17.53;70.37;101962.97;5017339;28;20026;-72
2021/07/22 01:30:10;;;;;;;16.00;7.68;;;;;;;17.50;70.68;101964.13;5028507;28;20107;-72
2021/07/22 01:32:37;;;;;;;14.57;7.43;;;;;;;17.48;70.85;101971.34;5013468;28;20044;-73
2021/07/22 01:35:03;;;;;;;12.43;8.52;;;;;;;17.44;70.84;101966.63;4993599;28;20320;-73
2021/07/22 01:37:29;;;;;;;11.45;7.82;;;;;;;17.37;71.09;101961.25;5011152;28;20025;-72
2021/07/22 01:39:57;;;;;;;13.15;7.40;;;;;;;17.36;71.11;101969.28;5006276;28;20072;-72
2021/07/22 01:42:23;;;;;;;12.98;7.80;;;;;;;17.31;71.03;101968.00;5004443;28;20156;-72
2021/07/22 01:44:50;;;;;;;13.27;7.20;;;;;;;17.26;71.08;101961.66;5021763;28;20512;-72
2021/07/22 01:47:17;;;;;;;13.02;7.97;;;;;;;17.24;71.22;101968.88;5025275;28;20025;-72
2021/07/22 01:49:43;;;;;;;18.20;10.23;;;;;;;17.21;71.19;101954.28;5015486;28;20124;-72
2021/07/22 01:52:11;;;;;;;13.15;8.25;;;;;;;17.19;70.96;101955.47;5022953;28;20029;-73
2021/07/22 01:54:39;;;;;;;17.45;9.77;;;;;;;17.16;71.13;101961.88;5016313;28;20448;-72
2021/07/22 01:57:06;;;;;;;17.15;9.50;;;;;;;17.07;71.41;101965.50;5028950;28;20025;-72
2021/07/22 01:59:36;;;;;;;16.30;8.57;;;;;;;16.93;72.12;101962.63;5000909;28;20149;-72
2021/07/22 02:02:03;;;;;;;14.43;8.65;;;;;;;16.84;72.49;101962.78;5016599;28;20483;-72
2021/07/22 02:04:35;;;;;;;16.17;7.60;;;;;;;16.79;72.59;101962.47;5022836;28;20060;-73
2021/07/22 02:07:01;;;;;;;14.95;8.50;;;;;;;16.74;72.64;101970.81;5037146;28;20399;-72
2021/07/22 02:09:28;;;;;;;14.10;8.00;;;;;;;16.73;72.75;101964.78;5026886;28;20041;-72
2021/07/22 02:11:56;;;;;;;13.25;8.13;;;;;;;16.69;72.74;101955.63;5021420;28;20040;-72
2021/07/22 02:14:23;;;;;;;16.33;9.15;;;;;;;16.70;72.85;101967.72;5021773;28;20052;-72
2021/07/22 02:16:51;;;;;;;16.42;9.30;;;;;;;16.70;72.46;101962.47;5010103;28;20431;-73
2021/07/22 02:19:17;;;;;;;13.48;8.48;;;;;;;16.71;72.33;101960.72;5022572;28;20057;-73
2021/07/22 02:21:44;;;;;;;17.02;8.75;;;;;;;16.71;72.07;101964.13;5038496;28;20032;-73
2021/07/22 02:24:13;;;;;;;15.25;9.73;;;;;;;16.72;71.84;101959.69;5028293;28;20029;-73
2021/07/22 02:27:07;;;;;;;16.40;10.00;;;;;;;16.70;71.64;101961.69;5025537;28;20044;-73
2021/07/22 02:29:33;;;;;;;16.25;9.25;;;;;;;16.71;71.75;101965.94;5029490;28;20033;-73
2021/07/22 02:31:58;;;;;;;16.83;9.32;;;;;;;16.69;72.13;101970.53;5023392;28;20033;-73
2021/07/22 02:34:25;;;;;;;20.02;9.90;;;;;;;16.68;71.96;101966.28;5024873;28;20040;-72
2021/07/22 02:36:54;;;;;;;20.52;10.73;;;;;;;16.66;71.81;101965.63;5027867;28;20021;-73
2021/07/22 02:39:28;;;;;;;19.35;11.52;;;;;;;16.65;71.93;101974.44;5035855;28;20107;-73
2021/07/22 02:41:54;;;;;;;18.20;9.93;;;;;;;16.64;71.81;101964.97;5029440;28;20025;-73
2021/07/22 02:44:21;;;;;;;18.88;9.20;;;;;;;16.62;71.87;101973.00;5028506;28;20033;-73
2021/07/22 02:46:57;;;;;;;16.90;10.18;;;;;;;16.59;71.91;101969.88;5029985;28;20029;-73
2021/07/22 02:49:23;;;;;;;16.38;8.95;;;;;;;16.53;72.18;101966.94;5030447;28;20025;-73
2021/07/22 02:51:49;;;;;;;18.38;9.38;;;;;;;16.51;72.12;101968.91;5003124;28;20542;-73
2021/07/22 02:54:16;;;;;;;19.08;9.80;;;;;;;16.50;72.11;101969.06;5021851;28;20679;-73
2021/07/22 02:56:42;;;;;;;18.45;10.20;;;;;;;16.45;72.51;101974.03;5028417;28;20029;-74
2021/07/22 02:59:14;;;;;;;18.90;9.85;;;;;;;16.37;73.34;101979.25;5026402;28;20028;-73
2021/07/22 03:01:41;;;;;;;17.23;9.18;;;;;;;16.30;73.62;101979.91;5034904;28;20134;-73
2021/07/22 03:04:13;;;;;;;18.13;9.40;;;;;;;16.30;73.10;101982.53;5026223;28;20045;-73
2021/07/22 03:06:48;;;;;;;15.93;9.98;;;;;;;16.29;73.04;101980.91;5027403;28;20108;-73
2021/07/22 03:09:15;;;;;;;20.50;10.98;;;;;;;16.29;72.78;101980.06;5022635;28;20049;-73
2021/07/22 03:11:44;;;;;;;18.50;9.98;;;;;;;16.29;72.85;101980.06;5021556;28;20053;-74
2021/07/22 03:14:10;;;;;;;17.67;9.38;;;;;;;16.28;72.81;101987.13;5023334;28;20169;-74
2021/07/22 03:16:36;;;;;;;16.75;8.45;;;;;;;16.27;72.91;101976.81;5029544;28;20594;-74
2021/07/22 03:19:02;;;;;;;17.20;9.85;;;;;;;16.22;73.17;101974.69;5029684;28;20041;-74
2021/07/22 03:21:35;;;;;;;17.27;10.27;;;;;;;16.13;73.75;101973.88;5023338;28;20057;-73
2021/07/22 03:24:19;;;;;;;17.63;8.93;;;;;;;16.06;73.94;101974.69;5028589;28;20195;-73
2021/07/22 03:26:45;;;;;;;16.63;9.80;;;;;;;16.03;74.10;101972.41;5031325;28;20026;-74
2021/07/22 03:29:11;;;;;;;15.18;9.18;;;;;;;16.03;74.05;101969.78;5036570;28;20540;-74
2021/07/22 03:31:41;;;;;;;13.93;8.50;;;;;;;16.04;73.97;101971.44;5029766;28;20029;-74
2021/07/22 03:34:08;;;;;;;15.60;8.43;;;;;;;16.03;73.98;101968.00;5026586;28;20108;-74
2021/07/22 03:36:39;;;;;;;18.33;9.70;;;;;;;15.94;74.29;101972.41;5026744;28;20115;-74
2021/07/22 03:39:14;;;;;;;14.30;9.23;;;;;;;15.92;74.60;101970.94;5017620;28;20417;-74
2021/07/22 03:41:48;;;;;;;17.30;9.00;;;;;;;15.90;74.61;101972.91;5029944;28;20037;-74
2021/07/22 03:44:26;;;;;;;16.10;9.13;;;;;;;15.88;74.72;101961.75;5033329;28;20049;-74
2021/07/22 03:46:51;;;;;;;16.10;8.93;;;;;;;15.86;74.75;101964.56;5028951;28;20491;-74
2021/07/22 03:49:21;;;;;;;33.22;9.63;;;;;;;15.81;74.71;101969.44;5027734;28;20037;-74
2021/07/22 03:51:56;;;;;;;15.75;9.38;;;;;;;15.80;74.78;101967.81;5031786;28;20375;-74
2021/07/22 03:54:28;;;;;;;15.43;8.63;;;;;;;15.80;74.50;101959.16;5026083;28;20029;-75
2021/07/22 03:56:54;;;;;;;17.00;8.77;;;;;;;15.76;74.92;101961.28;5028507;28;20029;-74
2021/07/22 03:59:23;;;;;;;14.05;8.80;;;;;;;15.75;75.31;101965.69;5028393;28;20049;-74
2021/07/22 04:01:54;;;;;;;15.80;9.43;;;;;;;15.77;74.96;101955.06;5026133;28;20026;-75
2021/07/22 04:04:23;;;;;;;20.95;10.07;;;;;;;15.77;75.13;101962.91;5028082;28;20170;-74
2021/07/22 04:06:52;;;;;;;17.92;9.80;;;;;;;15.77;75.16;101961.13;5025580;28;20103;-74
2021/07/22 04:09:34;;;;;;;16.23;9.13;;;;;;;15.71;75.10;101961.75;5026840;28;20501;-74
2021/07/22 04:12:19;;;;;;;22.52;10.75;;;;;;;15.67;75.54;101965.66;5028214;28;20072;-74
2021/07/22 04:15:05;;;;;;;15.98;8.88;;;;;;;15.65;75.66;101962.38;5019726;28;20082;-75
2021/07/22 04:17:41;;;;;;;14.88;8.25;;;;;;;15.67;75.84;101959.59;5027464;28;20025;-74
2021/07/22 04:20:15;;;;;;;19.10;9.00;;;;;;;15.71;75.47;101966.16;5029667;28;20033;-74
2021/07/22 04:23:07;;;;;;;16.73;9.48;;;;;;;15.71;75.72;101966.16;5017112;28;20410;-74
2021/07/22 04:25:40;;;;;;;19.20;8.85;;;;;;;15.65;76.19;101966.78;5028789;28;20403;-74
2021/07/22 04:28:13;;;;;;;19.27;9.68;;;;;;;15.63;76.58;101969.53;5027852;28;20095;-74
2021/07/22 04:30:40;;;;;;;16.13;9.55;;;;;;;15.64;76.66;101965.97;5026747;28;20044;-74
2021/07/22 04:33:32;;;;;;;18.05;9.57;;;;;;;15.69;76.38;101965.47;5019397;28;20534;-74
2021/07/22 04:36:12;;;;;;;22.13;11.18;;;;;;;15.73;76.26;101959.81;5012171;28;20111;-74
2021/07/22 04:38:49;;;;;;;19.02;11.43;;;;;;;15.77;75.78;101966.34;5025769;28;20049;-74
2021/07/22 04:41:43;;;;;;;17.35;10.45;;;;;;;15.80;76.00;101964.38;5020861;28;20041;-74
2021/07/22 04:44:20;;;;;;;17.73;10.15;;;;;;;15.81;76.23;101961.59;5021915;28;20044;-74
2021/07/22 04:47:06;;;;;;;23.65;10.02;;;;;;;15.79;76.48;101958.34;5028040;28;20040;-74
2021/07/22 04:49:50;;;;;;;17.83;9.57;;;;;;;15.80;76.85;101951.31;5023832;28;20052;-74
2021/07/22 04:52:34;;;;;;;18.70;9.60;;;;;;;15.81;76.80;101948.53;5011206;28;20029;-74
2021/07/22 04:55:22;;;;;;;14.68;9.02;;;;;;;15.86;76.93;101948.03;5030779;28;20045;-73
2021/07/22 04:57:56;;;;;;;19.10;9.05;;;;;;;15.88;76.65;101957.38;5027551;28;20029;-74
2021/07/22 05:00:22;;;;;;;15.55;9.90;;;;;;;15.92;76.44;101956.06;5026824;28;20057;-74
2021/07/22 05:02:58;;;;;;;14.65;9.55;;;;;;;15.99;76.14;101958.81;5022429;28;20025;-74
2021/07/22 05:05:29;;;;;;;17.63;9.32;;;;;;;16.04;76.19;101963.56;5010338;28;20391;-74
2021/07/22 05:08:17;;;;;;;17.67;9.80;;;;;;;16.09;76.32;101963.91;5019651;28;20132;-74
2021/07/22 05:11:09;;;;;;;14.15;9.07;;;;;;;16.13;76.32;101960.78;5027898;28;20045;-73
2021/07/22 05:13:44;;;;;;;20.27;10.20;;;;;;;16.23;76.16;101965.84;5022574;28;20124;-73
2021/07/22 05:16:19;;;;;;;19.73;10.85;;;;;;;16.30;75.92;101966.03;5015142;28;20025;-74
2021/07/22 05:19:01;;;;;;;24.08;11.57;;;;;;;16.38;76.00;101966.00;5028578;28;20029;-74
2021/07/22 05:21:42;;;;;;;19.17;12.13;;;;;;;16.44;76.80;101965.31;5036678;28;20036;-73
2021/07/22 05:24:31;;;;;;;19.63;10.95;;;;;;;16.51;76.71;101962.88;5031929;28;20047;-74
2021/07/22 05:27:16;;;;;;;13.98;9.55;;;;;;;16.61;76.75;101960.06;5023804;28;20087;-74
2021/07/22 05:29:53;;;;;;;14.90;9.48;;;;;;;16.73;76.30;101962.16;5027037;28;20249;-73
2021/07/22 05:32:43;;;;;;;15.77;10.27;;;;;;;16.87;75.82;101965.09;5012511;28;20036;-73
2021/07/22 05:35:23;;;;;;;18.85;10.90;;;;;;;16.99;75.30;101966.38;5025664;28;20228;-73
2021/07/22 05:37:53;;;;;;;24.25;13.60;;;;;;;17.11;75.04;101969.41;5017562;28;20034;-73
2021/07/22 05:40:18;;;;;;;23.88;13.50;;;;;;;17.23;75.82;101957.56;5019188;28;20048;-73
2021/07/22 05:42:44;;;;;;;21.05;11.75;;;;;;;17.36;76.05;101962.25;5030400;28;20037;-73
2021/07/22 05:45:10;;;;;;;19.52;11.75;;;;;;;17.51;75.56;101964.94;5026347;28;20041;-74
2021/07/22 05:47:35;;;;;;;16.13;10.25;;;;;;;17.67;75.29;101964.84;5035554;28;20041;-73
2021/07/22 05:50:01;;;;;;;19.75;12.35;;;;;;;17.85;75.11;101966.38;5017798;28;20395;-73
2021/07/22 05:52:26;;;;;;;21.15;11.98;;;;;;;18.03;74.62;101964.25;5032422;28;20036;-73
2021/07/22 05:54:52;;;;;;;22.92;13.15;;;;;;;18.32;71.57;101960.06;5025422;28;20475;-72
2021/07/22 05:57:17;;;;;;;29.67;15.00;;;;;;;18.51;68.90;101956.09;5031298;28;20116;-72
2021/07/22 05:59:43;;;;;;;29.38;16.42;;;;;;;18.76;67.64;101959.28;5039417;28;20037;-73
2021/07/22 06:02:08;;;;;;;28.90;16.58;;;;;;;19.03;68.01;101957.81;5032608;28;20418;-72
2021/07/22 06:04:34;;;;;;;24.42;14.45;;;;;;;19.31;67.79;101962.38;5022845;28;20034;-72
2021/07/22 06:07:00;;;;;;;27.67;15.50;;;;;;;19.58;66.63;101968.72;5030014;28;20036;-72
2021/07/22 06:09:25;;;;;;;31.05;16.08;;;;;;;19.82;65.27;101969.38;5032472;28;20041;-73
2021/07/22 06:11:51;;;;;;;20.15;12.50;;;;;;;20.11;64.72;101964.97;5029839;28;20091;-73
2021/07/22 06:14:16;;;;;;;24.85;14.52;;;;;;;20.40;63.57;101967.41;5018656;28;20403;-73
2021/07/22 06:16:42;;;;;;;19.67;12.13;;;;;;;20.69;62.89;101962.13;5033272;28;20565;-73
2021/07/22 06:19:09;;;;;;;25.58;14.52;;;;;;;21.00;61.81;101961.63;5029367;28;20046;-73
2021/07/22 06:21:34;;;;;;;26.90;15.30;;;;;;;21.17;60.79;101956.81;5007921;28;20032;-72
2021/07/22 06:24:00;;;;;;;23.67;12.82;;;;;;;21.33;60.75;101967.00;5029387;28;20029;-72
2021/07/22 06:26:25;;;;;;;25.23;14.05;;;;;;;21.53;60.19;101968.91;5025522;28;20604;-73
2021/07/22 06:28:50;;;;;;;21.38;13.23;;;;;;;21.95;59.27;101965.06;5022517;28;20103;-73
2021/07/22 06:31:16;;;;;;;27.92;14.48;;;;;;;22.21;56.74;101955.50;5032176;28;20044;-73
2021/07/22 06:33:41;;;;;;;22.25;13.23;;;;;;;22.39;55.44;101962.81;5033217;28;20029;-73
2021/07/22 06:36:07;;;;;;;20.23;12.25;;;;;;;22.51;55.36;101960.38;5026912;28;20495;-73
2021/07/22 06:38:33;;;;;;;24.00;13.25;;;;;;;22.69;55.52;101946.47;5031619;28;20033;-73
2021/07/22 06:40:59;;;;;;;20.13;11.80;;;;;;;22.82;54.92;101954.34;5037209;28;20048;-74
2021/07/22 06:43:25;;;;;;;18.35;10.95;;;;;;;22.67;55.22;101951.97;5032821;28;20033;-74
2021/07/22 06:45:51;;;;;;;22.23;12.48;;;;;;;22.33;56.47;101956.53;5028195;28;20057;-73
2021/07/22 06:48:21;;;;;;;18.92;11.63;;;;;;;22.16;57.09;101953.47;5022070;28;20029;-74
2021/07/22 06:50:46;;;;;;;17.35;10.73;;;;;;;22.03;56.68;101958.78;5034094;28;20037;-74
2021/07/22 06:53:11;;;;;;;19.90;12.02;;;;;;;21.85;57.66;101954.13;5026668;28;20096;-75
2021/07/22 06:55:37;;;;;;;17.88;11.02;;;;;;;21.77;58.61;101955.13;5033468;28;20083;-74
2021/07/22 06:58:06;;;;;;;16.67;10.75;;;;;;;21.74;59.27;101957.38;5032191;28;20040;-74
2021/07/22 07:00:33;;;;;;;17.98;10.90;;;;;;;21.75;59.04;101956.34;5027377;28;20232;-74
2021/07/22 07:03:06;;;;;;;18.27;11.60;;;;;;;21.77;58.56;101956.94;5029082;28;20041;-73
2021/07/22 07:05:33;;;;;;;18.15;11.57;;;;;;;21.83;58.38;101961.44;5028052;28;20091;-74
2021/07/22 07:07:58;;;;;;;19.60;11.35;;;;;;;21.95;57.18;101961.63;5025855;28;20108;-74
2021/07/22 07:10:25;;;;;;;19.63;11.38;;;;;;;22.28;56.62;101955.53;5022965;28;20487;-74
2021/07/22 07:12:51;;;;;;;21.08;12.05;;;;;;;22.29;56.25;101960.59;5026823;28;20136;-73
2021/07/22 07:15:17;;;;;;;19.35;11.50;;;;;;;22.14;56.15;101952.06;5023551;28;20021;-74
2021/07/22 07:17:42;;;;;;;20.77;12.48;;;;;;;22.10;56.18;101956.94;5040681;28;20039;-73
2021/07/22 07:20:08;;;;;;;19.17;10.52;;;;;;;22.04;56.89;101956.94;5028605;28;20041;-73
2021/07/22 07:22:34;;;;;;;19.83;11.05;;;;;;;21.96;57.00;101952.69;5025265;28;20179;-74
2021/07/22 07:24:59;;;;;;;17.08;10.07;;;;;;;21.99;57.53;101962.03;5029184;28;20028;-74
2021/07/22 07:27:25;;;;;;;18.35;9.98;;;;;;;22.04;57.78;101957.78;5034931;28;20048;-73
2021/07/22 07:29:50;;;;;;;20.00;11.73;;;;;;;22.03;56.65;101963.25;5038862;28;20037;-73
2021/07/22 07:32:16;;;;;;;18.42;10.85;;;;;;;22.03;56.87;101960.59;5030336;28;20052;-73
2021/07/22 07:34:41;;;;;;;20.77;11.77;;;;;;;22.11;56.09;101963.03;5030438;28;20041;-73
2021/07/22 07:37:07;;;;;;;18.77;11.23;;;;;;;22.13;55.38;101966.28;5030910;28;20538;-73
2021/07/22 07:39:34;;;;;;;20.02;12.00;;;;;;;22.16;55.29;101961.41;5028738;28;20545;-74
2021/07/22 07:42:01;;;;;;;17.45;10.18;;;;;;;22.19;55.80;101962.00;5025173;28;20028;-74
2021/07/22 07:44:27;;;;;;;18.48;11.27;;;;;;;22.19;55.71;101960.19;5024691;28;20103;-73
2021/07/22 07:46:53;;;;;;;18.33;10.70;;;;;;;22.20;55.33;101961.81;5028670;28;20626;-73
2021/07/22 07:49:18;;;;;;;20.58;12.10;;;;;;;22.20;53.26;101956.53;5025119;28;20033;-74
2021/07/22 07:51:44;;;;;;;24.42;12.35;;;;;;;22.16;54.22;101952.66;5032126;28;20029;-73
2021/07/22 07:54:11;;;;;;;19.52;11.43;;;;;;;22.31;54.28;101955.94;5025611;28;20506;-74
2021/07/22 07:56:37;;;;;;;16.08;10.55;;;;;;;22.51;54.25;101952.44;5024369;28;20026;-73
2021/07/22 07:59:02;;;;;;;17.75;10.98;;;;;;;22.99;53.06;101953.88;5021709;28;20073;-73
2021/07/22 08:01:29;;;;;;;20.10;11.05;;;;;;;24.01;50.36;101957.28;5037561;28;20037;-73
2021/07/22 08:03:56;;;;;;;22.95;11.60;;;;;;;24.72;49.70;101954.34;5028869;28;20033;-73
2021/07/22 08:06:22;;;;;;;17.98;12.15;;;;;;;24.84;49.36;101945.38;5020808;28;20061;-72
2021/07/22 08:08:48;;;;;;;20.83;12.43;;;;;;;25.30;48.58;101947.66;5019354;28;20045;-73
2021/07/22 08:11:13;;;;;;;23.60;12.73;;;;;;;25.59;46.22;101949.47;5028982;28;20026;-73
2021/07/22 08:13:39;;;;;;;19.65;11.75;;;;;;;25.64;47.37;101946.94;5025317;28;20038;-73
2021/07/22 08:16:05;;;;;;;22.13;13.75;;;;;;;25.69;47.05;101950.75;5031712;28;20034;-73
2021/07/22 08:18:31;;;;;;;23.23;13.55;;;;;;;26.13;45.27;101938.75;5032118;28;20029;-75
2021/07/22 08:20:56;;;;;;;26.42;13.57;;;;;;;26.40;44.66;101938.25;5019488;28;20553;-73
2021/07/22 08:23:22;;;;;;;22.77;14.02;;;;;;;26.76;43.13;101936.31;5023377;28;20045;-72
2021/07/22 08:25:47;;;;;;;21.42;13.75;;;;;;;27.10;43.21;101937.22;5035127;28;20037;-75
2021/07/22 08:28:13;;;;;;;23.60;11.57;;;;;;;27.34;42.24;101932.59;5035108;28;20071;-73
2021/07/22 08:30:40;;;;;;;20.92;11.68;;;;;;;27.23;41.73;101936.09;5028353;28;20113;-74
2021/07/22 08:33:05;;;;;;;23.70;11.65;;;;;;;27.15;41.15;101934.63;5037468;28;20033;-74
2021/07/22 08:35:31;;;;;;;22.35;11.35;;;;;;;27.12;42.05;101939.63;5034343;28;20120;-73
2021/07/22 08:37:57;;;;;;;20.20;11.73;;;;;;;27.05;41.22;101937.13;5029147;28;20466;-75
2021/07/22 08:40:25;;;;;;;17.40;10.18;;;;;;;26.81;44.17;101933.78;5025432;28;20029;-73
2021/07/22 08:42:53;;;;;;;18.85;10.93;;;;;;;26.47;43.60;101930.97;5026118;28;20025;-74
2021/07/22 08:45:18;;;;;;;16.27;9.88;;;;;;;26.36;43.60;101931.78;5034223;28;20164;-75
2021/07/22 08:47:45;;;;;;;17.10;10.75;;;;;;;26.01;43.59;101935.28;5037126;28;20379;-74
2021/07/22 08:50:12;;;;;;;17.20;9.77;;;;;;;25.78;44.67;101950.16;5032288;28;20030;-74
2021/07/22 08:52:38;;;;;;;17.55;10.55;;;;;;;25.36;44.61;101946.78;5030419;28;20045;-73
2021/07/22 08:55:04;;;;;;;14.05;9.30;;;;;;;25.23;45.99;101945.91;5035492;28;20037;-74
2021/07/22 08:57:33;;;;;;;18.60;9.85;;;;;;;25.21;44.05;101944.50;5035890;28;20128;-74
2021/07/22 09:00:00;;;;;;;17.65;11.57;;;;;;;25.18;45.30;101937.00;5034469;28;20037;-75
2021/07/22 09:02:30;;;;;;;15.82;9.73;;;;;;;25.10;45.45;101940.78;5038183;28;20083;-76
2021/07/22 09:04:57;;;;;;;14.20;8.90;;;;;;;25.38;45.02;101940.19;5030080;28;20059;-73
2021/07/22 09:07:23;;;;;;;18.23;10.95;;;;;;;25.31;45.96;101942.13;5036690;28;20644;-73
2021/07/22 09:10:04;;;;;;;17.52;9.10;;;;;;;25.41;45.98;101944.22;5032597;28;20406;-74
2021/07/22 09:12:51;;;;;;;14.93;9.18;;;;;;;25.76;45.47;101931.00;5036192;28;20048;-73
2021/07/22 09:15:23;;;;;;;20.02;12.02;;;;;;;26.17;43.13;101933.78;5031278;28;20029;-73
2021/07/22 09:17:49;;;;;;;18.27;10.60;;;;;;;26.63;42.57;101931.28;5034496;28;20079;-74
2021/07/22 09:20:34;;;;;;;16.77;9.98;;;;;;;27.12;42.52;101921.81;5037312;28;20456;-73
2021/07/22 09:23:02;;;;;;;17.83;10.45;;;;;;;27.36;39.34;101924.38;5029189;28;20107;-74
2021/07/22 09:25:38;;;;;;;16.17;10.77;;;;;;;27.41;39.34;101921.78;5029544;28;20056;-73
2021/07/22 09:28:04;;;;;;;14.10;9.98;;;;;;;27.41;39.42;101926.28;5024922;28;20459;-74
2021/07/22 09:30:30;;;;;;;12.45;8.63;;;;;;;27.47;38.46;101922.69;5017061;28;20107;-74
2021/07/22 09:32:55;;;;;;;14.35;8.35;;;;;;;27.69;37.82;101926.22;5035135;28;20115;-73
2021/07/22 09:35:22;;;;;;;14.25;9.23;;;;;;;27.73;38.21;101926.53;5033926;28;20038;-73
2021/07/22 09:37:49;;;;;;;20.23;10.02;;;;;;;27.68;38.93;101932.59;5035320;28;20037;-75
2021/07/22 09:40:26;;;;;;;17.08;9.52;;;;;;;27.80;39.63;101924.50;5034594;28;20025;-73
2021/07/22 09:42:54;;;;;;;18.67;8.77;;;;;;;27.99;39.52;101921.59;5038241;28;20437;-73
2021/07/22 09:45:25;;;;;;;20.17;9.38;;;;;;;28.23;38.60;101920.28;5034763;28;20391;-75
2021/07/22 09:47:52;;;;;;;18.15;10.23;;;;;;;28.54;38.71;101924.16;5034061;28;20065;-74
2021/07/22 09:50:19;;;;;;;21.67;10.82;;;;;;;28.19;38.10;101923.72;5034078;28;20487;-72
2021/07/22 09:52:58;;;;;;;16.33;10.60;;;;;;;28.51;38.05;101916.63;5033619;28;20037;-75
2021/07/22 09:55:32;;;;;;;28.08;11.20;;;;;;;28.38;39.19;101909.00;5034127;28;20083;-74
2021/07/22 09:58:00;;;;;;;17.20;11.65;;;;;;;28.27;39.14;101917.94;5033638;28;20047;-74
2021/07/22 10:00:27;;;;;;;17.23;11.55;;;;;;;28.37;38.90;101912.75;5032681;28;20037;-75
2021/07/22 10:02:54;;;;;;;20.38;12.07;;;;;;;28.00;39.85;101921.34;5035419;28;20037;-74
2021/07/22 10:05:23;;;;;;;20.45;12.32;;;;;;;28.05;38.92;101915.25;5032237;28;20553;-74
2021/07/22 10:07:51;;;;;;;19.90;12.85;;;;;;;28.33;39.78;101911.59;5033819;28;20095;-74
2021/07/22 10:10:17;;;;;;;16.50;10.98;;;;;;;28.57;41.44;101916.72;5033760;28;20467;-74
2021/07/22 10:12:50;;;;;;;21.58;11.23;;;;;;;29.05;39.23;101909.72;5031918;28;20494;-74
2021/07/22 10:15:17;;;;;;;24.48;14.55;;;;;;;28.73;37.54;101915.84;5029337;28;20458;-74
2021/07/22 10:17:46;;;;;;;21.17;13.40;;;;;;;28.66;40.57;101909.88;5035152;28;20025;-75
2021/07/22 10:20:11;;;;;;;19.83;12.70;;;;;;;28.76;40.78;101909.19;5036318;28;20559;-75
2021/07/22 10:22:37;;;;;;;21.33;12.57;;;;;;;29.08;41.17;101904.69;5033233;28;20021;-75
2021/07/22 10:25:05;;;;;;;27.52;15.25;;;;;;;29.09;39.86;101900.16;5033898;28;20049;-75
2021/07/22 10:27:32;;;;;;;27.65;15.63;;;;;;;29.17;40.03;101897.03;5050456;28;20335;-76
2021/07/22 10:30:04;;;;;;;31.17;14.45;;;;;;;28.80;40.21;101896.94;5050327;28;20040;-75
2021/07/22 10:32:31;;;;;;;26.45;15.63;;;;;;;28.28;40.35;101895.56;5025397;28;20471;-75
2021/07/22 10:34:58;;;;;;;22.00;13.95;;;;;;;27.84;41.81;101899.00;5025146;28;20095;-75
2021/07/22 10:37:24;;;;;;;27.65;15.77;;;;;;;27.48;43.46;101887.81;5036435;28;20041;-74
2021/07/22 10:40:05;;;;;;;21.83;12.98;;;;;;;27.41;43.04;101891.69;5038416;28;20029;-74
2021/07/22 10:42:42;;;;;;;30.48;18.25;;;;;;;27.16;45.03;101888.34;5034028;28;20033;-75
2021/07/22 10:45:20;;;;;;;32.97;20.67;;;;;;;27.20;44.36;101894.00;5032763;28;20044;-74
2021/07/22 10:48:04;;;;;;;27.77;16.10;;;;;;;27.11;44.21;101893.59;5037535;28;20041;-75
2021/07/22 10:50:39;;;;;;;31.45;19.58;;;;;;;27.15;44.89;101886.72;5036635;28;20037;-75
2021/07/22 10:53:05;;;;;;;35.22;22.58;;;;;;;27.51;43.33;101882.00;5036021;28;20037;-76
2021/07/22 10:55:40;;;;;;;28.63;19.20;;;;;;;27.60;43.38;101881.59;5035074;28;20065;-76
2021/07/22 10:58:34;;;;;;;36.70;20.73;;;;;;;27.44;42.96;101876.03;5036168;28;20434;-75
2021/07/22 11:01:01;;;;;;;36.25;21.02;;;;;;;27.02;44.79;101875.59;5036833;28;20060;-76
2021/07/22 11:03:35;;;;;;;32.72;19.92;;;;;;;26.94;44.60;101876.81;5039292;28;20394;-76
2021/07/22 11:06:01;;;;;;;32.63;18.98;;;;;;;27.27;43.95;101870.72;5036122;28;20041;-76
2021/07/22 11:08:29;;;;;;;27.33;15.95;;;;;;;27.68;44.91;101878.50;5033887;28;20181;-74
2021/07/22 11:10:58;;;;;;;34.00;17.88;;;;;;;27.71;42.32;101880.69;5034434;28;20032;-75
2021/07/22 11:13:35;;;;;;;33.35;20.13;;;;;;;27.62;41.48;101876.84;5033461;28;20036;-79
2021/07/22 11:16:05;;;;;;;24.27;15.10;;;;;;;27.95;41.22;101870.63;5037246;28;20506;-74
2021/07/22 11:18:45;;;;;;;26.40;15.50;;;;;;;28.19;41.10;101863.19;5034723;28;20040;-74
2021/07/22 11:21:34;;;;;;;22.67;13.73;;;;;;;28.47;42.01;101859.50;5037799;28;20037;-75
2021/07/22 11:24:05;;;;;;;24.35;15.43;;;;;;;28.48;42.33;101860.31;5036458;28;20057;-75